createdAt,value
2018-07-03T00:00:16.646Z,45.87
2018-07-03T00:01:16.616Z,45.76
2018-07-03T00:02:16.563Z,45.85
2018-07-03T00:03:16.517Z,47.10
2018-07-03T00:04:16.489Z,46.53
2018-07-03T00:05:16.458Z,46.62
2018-07-03T00:06:16.404Z,46.53
2018-07-03T00:07:16.361Z,46.62
2018-07-03T00:08:16.358Z,47.00
2018-07-03T00:09:16.284Z,47.00
2018-07-03T00:10:16.277Z,47.30
2018-07-03T00:11:16.253Z,47.00
2018-07-03T00:12:16.181Z,47.49
2018-07-03T00:13:16.168Z,47.68
2018-07-03T00:14:16.101Z,47.17
2018-07-03T00:15:16.064Z,47.27
2018-07-03T00:16:16.067Z,47.66
2018-07-03T00:17:16.003Z,47.56
2018-07-03T00:18:15.997Z,47.85
2018-07-03T00:19:15.932Z,47.58
2018-07-03T00:20:15.886Z,47.85
2018-07-03T00:21:15.896Z,47.46
2018-07-03T00:22:15.807Z,47.27
2018-07-03T00:23:15.779Z,47.97
2018-07-03T00:24:15.734Z,46.98
2018-07-03T00:25:15.738Z,47.58
2018-07-03T00:26:15.683Z,47.30
2018-07-03T00:27:15.619Z,47.56
2018-07-03T00:28:15.580Z,47.20
2018-07-03T00:29:15.542Z,47.10
2018-07-03T00:30:15.510Z,47.10
2018-07-03T00:31:15.466Z,47.27
2018-07-03T00:32:15.505Z,47.77
2018-07-03T00:33:15.415Z,47.39
2018-07-03T00:34:15.381Z,47.39
2018-07-03T00:35:15.357Z,47.39
2018-07-03T00:36:15.291Z,47.20
2018-07-03T00:37:15.290Z,46.98
2018-07-03T00:38:15.232Z,47.66
2018-07-03T00:39:15.190Z,48.16
2018-07-03T00:40:15.178Z,48.04
2018-07-03T00:41:15.123Z,47.85
2018-07-03T00:42:15.081Z,47.56
2018-07-03T00:43:15.026Z,48.13
2018-07-03T00:44:14.990Z,48.33
2018-07-03T00:45:14.950Z,48.71
2018-07-03T00:46:14.919Z,48.61
2018-07-03T00:47:14.884Z,48.52
2018-07-03T00:48:14.876Z,49.10
2018-07-03T00:49:14.802Z,48.90
2018-07-03T00:50:14.856Z,49.10
2018-07-03T00:51:14.721Z,49.17
2018-07-03T00:52:14.697Z,50.03
2018-07-03T00:53:14.714Z,49.84
2018-07-03T00:54:14.613Z,50.99
2018-07-03T00:55:14.568Z,49.93
2018-07-03T00:56:14.607Z,50.42
2018-07-03T00:57:14.507Z,49.55
2018-07-03T00:58:14.487Z,50.42
2018-07-03T00:59:14.459Z,52.02
2018-07-03T01:00:14.403Z,52.22
2018-07-03T01:01:14.364Z,51.16
2018-07-03T01:02:14.323Z,52.22
2018-07-03T01:03:14.336Z,52.31
2018-07-03T01:04:14.234Z,53.27
2018-07-03T01:05:14.250Z,55.96
2018-07-03T01:06:14.166Z,57.18
2018-07-03T01:07:14.200Z,57.65
2018-07-03T01:08:14.106Z,57.37
2018-07-03T01:09:14.070Z,58.59
2018-07-03T01:10:14.040Z,58.20
2018-07-03T01:11:13.982Z,59.33
2018-07-03T01:12:13.949Z,60.86
2018-07-03T01:13:13.906Z,59.80
2018-07-03T01:14:13.900Z,60.19
2018-07-03T01:15:13.841Z,60.76
2018-07-03T01:16:13.858Z,61.53
2018-07-03T01:17:13.760Z,63.42
2018-07-03T01:18:13.720Z,64.37
2018-07-03T01:19:13.688Z,64.56
2018-07-03T01:20:13.672Z,64.18
2018-07-03T01:21:13.647Z,64.56
2018-07-03T01:22:13.564Z,66.16
2018-07-03T01:23:13.565Z,65.49
2018-07-03T01:24:13.500Z,65.78
2018-07-03T01:25:13.485Z,66.45
2018-07-03T01:26:13.425Z,65.39
2018-07-03T01:27:13.375Z,65.49
2018-07-03T01:28:13.344Z,64.34
2018-07-03T01:29:13.332Z,63.10
2018-07-03T01:30:13.293Z,61.76
2018-07-03T01:31:13.236Z,63.29
2018-07-03T01:32:13.215Z,63.10
2018-07-03T01:33:13.148Z,62.26
2018-07-03T01:34:13.121Z,61.60
2018-07-03T01:35:13.088Z,62.46
2018-07-03T01:36:13.046Z,62.65
2018-07-03T01:37:13.037Z,63.13
2018-07-03T01:38:12.976Z,64.09
2018-07-03T01:39:12.917Z,64.56
2018-07-03T01:40:12.905Z,66.58
2018-07-03T01:41:12.873Z,66.16
2018-07-03T01:42:12.836Z,66.06
2018-07-03T01:43:12.775Z,66.35
2018-07-03T01:44:12.718Z,66.74
2018-07-03T01:45:22.742Z,67.60
2018-07-03T01:46:12.660Z,67.79
2018-07-03T01:47:12.621Z,67.79
2018-07-03T01:48:12.566Z,67.79
2018-07-03T01:49:12.582Z,67.69
2018-07-03T01:50:12.545Z,67.69
2018-07-03T01:51:12.449Z,68.65
2018-07-03T01:52:12.419Z,69.03
2018-07-03T01:53:12.443Z,69.03
2018-07-03T01:54:12.348Z,70.09
2018-07-03T01:55:12.358Z,70.81
2018-07-03T01:56:12.296Z,70.72
2018-07-03T01:57:12.267Z,71.30
2018-07-03T01:58:12.219Z,72.06
2018-07-03T01:59:12.142Z,72.25
2018-07-03T02:00:12.109Z,71.93
2018-07-03T02:01:12.101Z,72.12
2018-07-03T02:02:12.038Z,72.12
2018-07-03T02:03:12.042Z,72.79
2018-07-03T02:04:11.996Z,73.55
2018-07-03T02:05:11.943Z,74.13
2018-07-03T02:06:11.906Z,73.27
2018-07-03T02:07:11.906Z,73.36
2018-07-03T02:08:11.838Z,73.17
2018-07-03T02:09:11.784Z,73.27
2018-07-03T02:10:11.765Z,73.46
2018-07-03T02:11:11.719Z,74.90
2018-07-03T02:12:11.645Z,74.99
2018-07-03T02:13:11.628Z,74.99
2018-07-03T02:14:11.595Z,75.09
2018-07-03T02:15:11.535Z,75.18
2018-07-03T02:16:11.528Z,75.34
2018-07-03T02:17:11.483Z,75.91
2018-07-03T02:18:11.416Z,76.77
2018-07-03T02:19:11.387Z,76.67
2018-07-03T02:20:11.332Z,76.86
2018-07-03T02:21:11.357Z,77.34
2018-07-03T02:22:11.323Z,78.78
2018-07-03T02:23:11.248Z,78.58
2018-07-03T02:24:11.173Z,78.49
2018-07-03T02:25:11.155Z,77.63
2018-07-03T02:26:11.113Z,78.58
2018-07-03T02:27:11.105Z,78.01
2018-07-03T02:28:11.037Z,77.92
2018-07-03T02:29:11.033Z,77.92
2018-07-03T02:30:10.970Z,79.44
2018-07-03T02:31:10.983Z,79.93
2018-07-03T02:32:10.886Z,78.78
2018-07-03T02:33:10.866Z,79.50
2018-07-03T02:34:10.824Z,79.50
2018-07-03T02:35:10.804Z,78.74
2018-07-03T02:36:10.740Z,79.22
2018-07-03T02:37:10.716Z,79.60
2018-07-03T02:38:10.687Z,80.17
2018-07-03T02:39:10.675Z,80.46
2018-07-03T02:40:10.569Z,80.36
2018-07-03T02:41:10.531Z,80.27
2018-07-03T02:42:10.476Z,80.93
2018-07-03T02:43:10.529Z,80.36
2018-07-03T02:44:10.430Z,80.36
2018-07-03T02:45:10.381Z,78.93
2018-07-03T02:46:10.346Z,79.69
2018-07-03T02:47:10.376Z,79.41
2018-07-03T02:48:10.269Z,79.88
2018-07-03T02:49:10.258Z,80.07
2018-07-03T02:50:10.171Z,80.36
2018-07-03T02:51:10.151Z,79.12
2018-07-03T02:52:10.100Z,80.74
2018-07-03T02:53:10.139Z,76.16
2018-07-03T02:54:10.080Z,74.82
2018-07-03T02:55:09.973Z,73.99
2018-07-03T02:56:09.975Z,72.75
2018-07-03T02:57:20.272Z,71.61
2018-07-03T02:58:09.946Z,70.59
2018-07-03T02:59:09.805Z,69.82
2018-07-03T03:00:09.777Z,69.06
2018-07-03T03:01:09.748Z,71.64
2018-07-03T03:02:09.693Z,69.54
2018-07-03T03:03:09.855Z,71.73
2018-07-03T03:04:09.611Z,73.84
2018-07-03T03:05:09.670Z,72.88
2018-07-03T03:06:09.545Z,73.46
2018-07-03T03:07:09.537Z,74.04
2018-07-03T03:08:09.516Z,73.80
2018-07-03T03:09:09.438Z,75.91
2018-07-03T03:10:09.399Z,76.86
2018-07-03T03:11:09.366Z,76.57
2018-07-03T03:12:09.324Z,76.10
2018-07-03T03:13:09.318Z,77.53
2018-07-03T03:14:09.246Z,78.11
2018-07-03T03:15:09.196Z,78.39
2018-07-03T03:16:09.171Z,77.69
2018-07-03T03:17:09.132Z,77.69
2018-07-03T03:18:09.139Z,77.87
2018-07-03T03:19:09.040Z,78.26
2018-07-03T03:20:08.994Z,78.74
2018-07-03T03:21:18.103Z,78.55
2018-07-03T03:22:08.973Z,79.41
2018-07-03T03:23:08.896Z,79.60
2018-07-03T03:24:08.890Z,79.79
2018-07-03T03:25:08.870Z,80.36
2018-07-03T03:26:08.773Z,80.07
2018-07-03T03:27:08.789Z,81.03
2018-07-03T03:28:08.738Z,81.13
2018-07-03T03:29:08.671Z,80.55
2018-07-03T03:30:08.620Z,81.13
2018-07-03T03:31:08.569Z,81.22
2018-07-03T03:32:08.520Z,81.70
2018-07-03T03:33:08.525Z,82.08
2018-07-03T03:34:08.452Z,81.41
2018-07-03T03:35:08.449Z,80.17
2018-07-03T03:36:08.411Z,80.36
2018-07-03T03:37:08.356Z,79.79
2018-07-03T03:38:08.300Z,79.88
2018-07-03T03:39:08.288Z,80.17
2018-07-03T03:40:08.227Z,79.88
2018-07-03T03:41:08.218Z,77.87
2018-07-03T03:42:08.159Z,77.59
2018-07-03T03:43:08.106Z,75.87
2018-07-03T03:44:08.047Z,75.96
2018-07-03T03:45:08.088Z,75.78
2018-07-03T03:46:07.988Z,72.66
2018-07-03T03:47:07.973Z,72.56
2018-07-03T03:48:07.906Z,73.71
2018-07-03T03:49:07.868Z,73.43
2018-07-03T03:50:07.865Z,71.13
2018-07-03T03:51:07.784Z,72.60
2018-07-03T03:52:07.776Z,69.73
2018-07-03T03:53:07.705Z,68.20
2018-07-03T03:54:07.672Z,68.96
2018-07-03T03:55:07.681Z,70.59
2018-07-03T03:56:07.587Z,68.23
2018-07-03T03:57:07.579Z,67.66
2018-07-03T03:58:07.521Z,66.70
2018-07-03T03:59:07.489Z,67.18
2018-07-03T04:00:07.481Z,66.41
2018-07-03T04:01:07.448Z,66.83
2018-07-03T04:02:07.430Z,66.06
2018-07-03T04:03:07.316Z,67.31
2018-07-03T04:04:07.342Z,68.36
2018-07-03T04:05:07.267Z,69.57
2018-07-03T04:06:07.190Z,69.67
2018-07-03T04:07:07.243Z,68.80
2018-07-03T04:08:07.118Z,68.23
2018-07-03T04:09:07.079Z,69.38
2018-07-03T04:10:07.030Z,67.56
2018-07-03T04:11:07.022Z,69.48
2018-07-03T04:12:06.989Z,71.01
2018-07-03T04:13:07.018Z,73.11
2018-07-03T04:14:06.887Z,71.97
2018-07-03T04:15:06.848Z,67.47
2018-07-03T04:16:06.815Z,68.33
2018-07-03T04:17:06.790Z,71.87
2018-07-03T04:18:06.727Z,71.77
2018-07-03T04:19:06.700Z,72.25
2018-07-03T04:20:06.681Z,72.25
2018-07-03T04:21:06.625Z,71.39
2018-07-03T04:22:06.587Z,72.06
2018-07-03T04:23:06.542Z,72.63
2018-07-03T04:24:06.511Z,72.83
2018-07-03T04:25:06.468Z,74.74
2018-07-03T04:26:06.459Z,73.88
2018-07-03T04:27:06.382Z,74.70
2018-07-03T04:28:06.342Z,74.41
2018-07-03T04:29:06.325Z,75.27
2018-07-03T04:30:06.260Z,75.89
2018-07-03T04:31:06.255Z,73.36
2018-07-03T04:32:06.225Z,74.61
2018-07-03T04:33:16.592Z,74.51
2018-07-03T04:34:06.182Z,75.02
2018-07-03T04:35:06.066Z,74.36
2018-07-03T04:36:06.113Z,73.38
2018-07-03T04:37:05.976Z,70.92
2018-07-03T04:38:05.956Z,66.90
2018-07-03T04:39:05.899Z,63.54
2018-07-03T04:40:05.892Z,61.26
2018-07-03T04:41:05.857Z,57.28
2018-07-03T04:42:05.802Z,55.41
2018-07-03T04:43:05.812Z,54.28
2018-07-03T04:44:05.728Z,54.05
2018-07-03T04:45:05.684Z,54.14
2018-07-03T04:46:05.680Z,53.27
2018-07-03T04:47:05.612Z,52.33
2018-07-03T04:48:05.595Z,52.33
2018-07-03T04:49:05.544Z,52.55
2018-07-03T04:50:05.624Z,52.36
2018-07-03T04:51:05.491Z,50.45
2018-07-03T04:52:05.434Z,50.65
2018-07-03T04:53:05.417Z,50.18
2018-07-03T04:54:05.353Z,49.22
2018-07-03T04:55:05.319Z,48.86
2018-07-03T04:56:15.239Z,49.12
2018-07-03T04:57:09.489Z,48.93
2018-07-03T04:58:05.760Z,49.34
2018-07-03T04:59:05.185Z,49.15
2018-07-03T05:00:05.161Z,48.95
2018-07-03T05:01:05.167Z,48.88
2018-07-03T05:02:05.075Z,47.45
2018-07-03T05:03:05.030Z,46.77
2018-07-03T05:04:05.007Z,46.12
2018-07-03T05:05:04.989Z,45.54
2018-07-03T05:06:04.979Z,45.05
2018-07-03T05:07:04.945Z,46.12
2018-07-03T05:08:04.873Z,47.19
2018-07-03T05:09:04.868Z,46.80
2018-07-03T05:10:04.843Z,46.04
2018-07-03T05:11:04.769Z,44.81
2018-07-03T05:12:04.746Z,43.74
2018-07-03T05:13:04.710Z,44.51
2018-07-03T05:14:04.657Z,45.70
2018-07-03T05:15:04.692Z,45.31
2018-07-03T05:16:04.605Z,44.24
2018-07-03T05:17:04.580Z,44.54
2018-07-03T05:18:04.534Z,44.27
2018-07-03T05:19:04.519Z,44.27
2018-07-03T05:20:04.504Z,43.98
2018-07-03T05:21:04.430Z,45.00
2018-07-03T05:22:04.491Z,45.61
2018-07-03T05:23:04.366Z,45.29
2018-07-03T05:24:04.330Z,46.26
2018-07-03T05:25:04.316Z,45.80
2018-07-03T05:26:04.305Z,45.43
2018-07-03T05:27:04.332Z,44.56
2018-07-03T05:28:04.206Z,43.41
2018-07-03T05:29:04.157Z,42.85
2018-07-03T05:30:04.163Z,42.08
2018-07-03T05:31:04.135Z,40.83
2018-07-03T05:32:04.077Z,40.54
2018-07-03T05:33:04.088Z,40.37
2018-07-03T05:34:04.004Z,40.58
2018-07-03T05:35:04.020Z,38.44
2018-07-03T05:36:03.939Z,38.38
2018-07-03T05:37:03.934Z,37.00
2018-07-03T05:38:03.906Z,38.54
2018-07-03T05:39:03.860Z,39.24
2018-07-03T05:40:03.814Z,36.72
2018-07-03T05:41:03.816Z,34.91
2018-07-03T05:42:03.776Z,34.89
2018-07-03T05:43:03.764Z,35.77
2018-07-03T05:44:03.700Z,37.35
2018-07-03T05:45:03.718Z,35.61
2018-07-03T05:46:03.613Z,35.39
2018-07-03T05:47:03.642Z,37.54
2018-07-03T05:48:03.624Z,36.78
2018-07-03T05:49:03.536Z,34.18
2018-07-03T05:50:03.492Z,34.77
2018-07-03T05:51:03.500Z,36.13
2018-07-03T05:52:03.424Z,34.28
2018-07-03T05:53:03.457Z,34.09
2018-07-03T05:54:03.403Z,32.53
2018-07-03T05:55:03.344Z,32.24
2018-07-03T05:56:03.310Z,31.64
2018-07-03T05:57:03.273Z,33.20
2018-07-03T05:58:03.259Z,33.20
2018-07-03T05:59:03.241Z,32.81
2018-07-03T06:00:03.172Z,32.04
2018-07-03T06:01:03.168Z,32.32
2018-07-03T06:02:03.139Z,33.30
2018-07-03T06:03:03.133Z,32.35
2018-07-03T06:04:03.300Z,32.17
2018-07-03T06:05:03.074Z,30.61
2018-07-03T06:06:02.989Z,31.56
2018-07-03T06:07:02.993Z,32.37
2018-07-03T06:08:02.951Z,31.11
2018-07-03T06:09:02.929Z,30.51
2018-07-03T06:10:02.864Z,31.99
2018-07-03T06:11:02.849Z,29.75
2018-07-03T06:12:02.807Z,29.00
2018-07-03T06:13:02.819Z,29.06
2018-07-03T06:14:02.841Z,29.74
2018-07-03T06:15:02.735Z,30.20
2018-07-03T06:16:02.712Z,31.08
2018-07-03T06:17:02.660Z,32.40
2018-07-03T06:18:02.669Z,29.75
2018-07-03T06:19:02.582Z,29.27
2018-07-03T06:20:02.602Z,29.35
2018-07-03T06:21:02.531Z,31.55
2018-07-03T06:22:02.565Z,29.97
2018-07-03T06:23:02.467Z,29.59
2018-07-03T06:24:02.474Z,29.11
2018-07-03T06:25:02.435Z,28.79
2018-07-03T06:26:02.384Z,29.17
2018-07-03T06:27:02.369Z,27.88
2018-07-03T06:28:02.337Z,28.68
2018-07-03T06:29:02.348Z,29.00
2018-07-03T06:30:02.280Z,27.11
2018-07-03T06:31:02.248Z,28.49
2018-07-03T06:32:02.200Z,27.98
2018-07-03T06:33:02.167Z,28.85
2018-07-03T06:34:02.146Z,28.45
2018-07-03T06:35:02.125Z,28.86
2018-07-03T06:36:02.138Z,29.68
2018-07-03T06:37:02.058Z,30.44
2018-07-03T06:38:02.041Z,29.79
2018-07-03T06:39:01.995Z,28.12
2018-07-03T06:40:01.969Z,27.44
2018-07-03T06:41:01.944Z,27.84
2018-07-03T06:42:01.936Z,28.13
2018-07-03T06:43:01.896Z,27.17
2018-07-03T06:44:01.866Z,27.06
2018-07-03T06:45:01.868Z,27.55
2018-07-03T06:46:01.816Z,28.11
2018-07-03T06:47:01.790Z,28.30
2018-07-03T06:48:01.779Z,29.00
2018-07-03T06:49:01.718Z,29.36
2018-07-03T06:50:01.666Z,29.64
2018-07-03T06:51:01.649Z,29.44
2018-07-03T06:52:01.653Z,29.08
2018-07-03T06:53:01.584Z,29.08
2018-07-03T06:54:01.577Z,29.49
2018-07-03T06:55:01.540Z,28.11
2018-07-03T06:56:01.492Z,27.52
2018-07-03T06:57:01.470Z,27.21
2018-07-03T06:58:01.476Z,28.96
2018-07-03T06:59:01.416Z,28.68
2018-07-03T07:00:01.397Z,29.35
2018-07-03T07:01:01.354Z,30.65
2018-07-03T07:02:01.327Z,27.91
2018-07-03T07:03:01.344Z,27.72
2018-07-03T07:04:01.312Z,27.74
2018-07-03T07:05:01.234Z,27.15
2018-07-03T07:06:01.197Z,27.39
2018-07-03T07:07:01.179Z,26.42
2018-07-03T07:08:01.234Z,25.04
2018-07-03T07:09:01.233Z,26.80
2018-07-03T07:10:01.086Z,26.62
2018-07-03T07:11:01.051Z,25.83
2018-07-03T07:12:01.018Z,23.49
2018-07-03T07:13:01.020Z,24.69
2018-07-03T07:14:00.957Z,23.71
2018-07-03T07:15:00.988Z,23.19
2018-07-03T07:16:00.929Z,27.01
2018-07-03T07:17:00.872Z,26.04
2018-07-03T07:18:00.884Z,24.54
2018-07-03T07:19:00.868Z,24.91
2018-07-03T07:20:00.784Z,25.20
2018-07-03T07:21:00.771Z,26.98
2018-07-03T07:22:00.725Z,25.72
2018-07-03T07:23:00.722Z,25.52
2018-07-03T07:24:00.707Z,24.85
2018-07-03T07:25:00.633Z,24.69
2018-07-03T07:26:00.621Z,25.01
2018-07-03T07:27:00.598Z,23.22
2018-07-03T07:28:00.551Z,23.47
2018-07-03T07:29:00.564Z,24.53
2018-07-03T07:30:00.508Z,24.62
2018-07-03T07:31:00.511Z,25.10
2018-07-03T07:32:00.458Z,26.34
2018-07-03T07:33:00.422Z,27.69
2018-07-03T07:34:00.413Z,29.95
2018-07-03T07:35:00.367Z,28.13
2018-07-03T07:36:00.399Z,27.09
2018-07-03T07:37:00.317Z,24.93
2018-07-03T07:38:00.298Z,26.32
2018-07-03T07:39:00.294Z,24.77
2018-07-03T07:40:00.239Z,25.09
2018-07-03T07:41:00.190Z,22.78
2018-07-03T07:42:00.171Z,25.34
2018-07-03T07:43:00.178Z,24.96
2018-07-03T07:44:00.113Z,23.67
2018-07-03T07:45:00.114Z,24.96
2018-07-03T07:46:00.084Z,24.43
2018-07-03T07:47:00.031Z,24.51
2018-07-03T07:48:00.047Z,25.18
2018-07-03T07:48:59.970Z,26.16
2018-07-03T07:49:59.966Z,27.07
2018-07-03T07:50:59.947Z,24.60
2018-07-03T07:51:59.899Z,24.31
2018-07-03T07:52:59.922Z,25.87
2018-07-03T07:53:59.837Z,25.16
2018-07-03T07:54:59.884Z,26.49
2018-07-03T07:55:59.772Z,28.72
2018-07-03T07:56:59.759Z,27.34
2018-07-03T07:57:59.739Z,26.84
2018-07-03T07:58:59.718Z,29.20
2018-07-03T07:59:59.688Z,29.10
2018-07-03T08:00:59.667Z,27.54
2018-07-03T08:01:59.613Z,27.65
2018-07-03T08:02:59.601Z,29.31
2018-07-03T08:03:59.572Z,28.32
2018-07-03T08:04:59.537Z,30.76
2018-07-03T08:05:59.522Z,28.15
2018-07-03T08:06:59.481Z,29.64
2018-07-03T08:07:59.477Z,26.92
2018-07-03T08:08:59.416Z,27.04
2018-07-03T08:09:59.386Z,26.64
2018-07-03T08:10:59.397Z,27.37
2018-07-03T08:11:59.339Z,27.05
2018-07-03T08:12:59.308Z,27.05
2018-07-03T08:13:59.269Z,27.94
2018-07-03T08:14:59.252Z,28.85
2018-07-03T08:15:59.259Z,27.09
2018-07-03T08:16:59.216Z,24.65
2018-07-03T08:17:59.212Z,26.12
2018-07-03T08:18:59.148Z,25.16
2018-07-03T08:19:59.143Z,27.11
2018-07-03T08:20:59.076Z,26.61
2018-07-03T08:21:59.106Z,28.06
2018-07-03T08:22:59.073Z,29.35
2018-07-03T08:23:58.998Z,28.49
2018-07-03T08:24:58.977Z,27.21
2018-07-03T08:25:58.975Z,26.43
2018-07-03T08:26:58.936Z,27.52
2018-07-03T08:27:58.895Z,27.24
2018-07-03T08:28:58.900Z,24.88
2018-07-03T08:29:58.838Z,24.48
2018-07-03T08:30:58.830Z,24.97
2018-07-03T08:31:58.801Z,25.93
2018-07-03T08:32:58.767Z,26.59
2018-07-03T08:33:58.792Z,27.64
2018-07-03T08:34:58.707Z,29.13
2018-07-03T08:35:58.690Z,26.98
2018-07-03T08:36:58.644Z,29.25
2018-07-03T08:37:58.632Z,27.52
2018-07-03T08:38:58.607Z,26.43
2018-07-03T08:39:58.572Z,27.39
2018-07-03T08:40:58.533Z,26.98
2018-07-03T08:41:58.526Z,28.83
2018-07-03T08:42:58.615Z,28.34
2018-07-03T08:43:58.476Z,29.53
2018-07-03T08:44:58.482Z,26.81
2018-07-03T08:45:58.402Z,27.37
2018-07-03T08:46:58.436Z,28.71
2018-07-03T08:47:58.400Z,29.00
2018-07-03T08:48:58.340Z,29.28
2018-07-03T08:49:58.335Z,27.73
2018-07-03T08:50:58.276Z,29.31
2018-07-03T08:52:09.166Z,30.02
2018-07-03T08:52:58.293Z,27.00
2018-07-03T08:53:58.425Z,27.70
2018-07-03T08:54:58.196Z,28.50
2018-07-03T08:55:58.158Z,27.34
2018-07-03T08:56:58.154Z,26.45
2018-07-03T08:57:58.142Z,25.83
2018-07-03T08:58:58.106Z,27.27
2018-07-03T08:59:58.079Z,28.32
2018-07-03T09:00:58.090Z,29.39
2018-07-03T09:01:57.994Z,28.89
2018-07-03T09:02:57.989Z,30.27
2018-07-03T09:03:57.962Z,30.20
2018-07-03T09:04:57.951Z,27.20
2018-07-03T09:05:57.901Z,27.28
2018-07-03T09:06:57.870Z,27.66
2018-07-03T09:07:57.828Z,28.43
2018-07-03T09:08:57.845Z,28.30
2018-07-03T09:09:57.833Z,30.76
2018-07-03T09:10:57.769Z,30.77
2018-07-03T09:11:57.771Z,30.40
2018-07-03T09:12:57.719Z,29.44
2018-07-03T09:13:57.709Z,27.38
2018-07-03T09:14:57.727Z,26.98
2018-07-03T09:15:57.667Z,27.86
2018-07-03T09:16:57.611Z,27.86
2018-07-03T09:17:57.640Z,27.36
2018-07-03T09:18:57.576Z,27.54
2018-07-03T09:19:57.570Z,29.57
2018-07-03T09:20:57.529Z,29.00
2018-07-03T09:21:57.489Z,28.92
2018-07-03T09:22:57.456Z,27.73
2018-07-03T09:23:57.432Z,27.55
2018-07-03T09:24:57.409Z,29.22
2018-07-03T09:25:57.429Z,28.75
2018-07-03T09:26:57.357Z,28.77
2018-07-03T09:27:57.337Z,27.01
2018-07-03T09:28:57.298Z,26.54
2018-07-03T09:29:57.281Z,26.53
2018-07-03T09:30:57.259Z,26.54
2018-07-03T09:31:57.241Z,27.52
2018-07-03T09:32:57.211Z,27.39
2018-07-03T09:33:57.214Z,25.12
2018-07-03T09:34:57.180Z,25.71
2018-07-03T09:35:57.154Z,27.27
2018-07-03T09:36:57.103Z,27.26
2018-07-03T09:37:57.073Z,27.34
2018-07-03T09:38:57.057Z,28.14
2018-07-03T09:39:57.008Z,26.06
2018-07-03T09:40:57.003Z,27.52
2018-07-03T09:41:56.989Z,28.11
2018-07-03T09:42:56.950Z,25.86
2018-07-03T09:43:56.933Z,26.73
2018-07-03T09:44:56.977Z,27.91
2018-07-03T09:45:56.869Z,26.25
2018-07-03T09:46:56.880Z,25.16
2018-07-03T09:47:56.819Z,26.42
2018-07-03T09:48:56.795Z,27.01
2018-07-03T09:49:56.755Z,27.28
2018-07-03T09:50:56.752Z,27.09
2018-07-03T09:51:56.779Z,27.95
2018-07-03T09:52:56.722Z,28.16
2018-07-03T09:53:56.647Z,27.79
2018-07-03T09:54:56.665Z,27.70
2018-07-03T09:55:56.590Z,27.83
2018-07-03T09:56:56.587Z,27.16
2018-07-03T09:57:56.563Z,27.06
2018-07-03T09:58:56.513Z,27.37
2018-07-03T09:59:56.502Z,27.86
2018-07-03T10:00:56.504Z,28.63
2018-07-03T10:01:56.442Z,27.05
2018-07-03T10:02:56.392Z,28.39
2018-07-03T10:04:07.287Z,28.78
2018-07-03T10:04:56.356Z,27.80
2018-07-03T10:05:56.416Z,28.50
2018-07-03T10:06:56.538Z,29.80
2018-07-03T10:07:56.286Z,28.43
2018-07-03T10:08:56.250Z,28.33
2018-07-03T10:09:56.208Z,30.10
2018-07-03T10:10:56.184Z,28.25
2018-07-03T10:11:56.153Z,27.98
2018-07-03T10:12:56.243Z,27.90
2018-07-03T10:13:56.118Z,25.26
2018-07-03T10:14:56.153Z,25.73
2018-07-03T10:15:56.063Z,26.21
2018-07-03T10:16:56.051Z,27.06
2018-07-03T10:17:56.035Z,27.36
2018-07-03T10:18:56.015Z,28.05
2018-07-03T10:19:55.970Z,28.05
2018-07-03T10:20:55.946Z,27.06
2018-07-03T10:21:55.897Z,26.97
2018-07-03T10:22:55.960Z,26.97
2018-07-03T10:23:55.853Z,28.23
2018-07-03T10:24:55.842Z,27.25
2018-07-03T10:25:55.816Z,27.54
2018-07-03T10:26:55.788Z,27.81
2018-07-03T10:28:07.092Z,28.91
2018-07-03T10:28:55.836Z,29.41
2018-07-03T10:29:56.653Z,28.25
2018-07-03T10:30:56.609Z,28.25
2018-07-03T10:31:56.468Z,27.66
2018-07-03T10:32:55.623Z,28.04
2018-07-03T10:33:55.640Z,27.94
2018-07-03T10:34:55.620Z,28.54
2018-07-03T10:35:55.571Z,27.36
2018-07-03T10:36:56.646Z,27.84
2018-07-03T10:37:56.394Z,27.17
2018-07-03T10:38:56.192Z,26.79
2018-07-03T10:39:55.439Z,27.09
2018-07-03T10:40:55.424Z,26.29
2018-07-03T10:41:55.406Z,27.08
2018-07-03T10:42:55.361Z,26.88
2018-07-03T10:43:55.369Z,27.17
2018-07-03T10:44:55.332Z,28.26
2018-07-03T10:45:55.316Z,26.79
2018-07-03T10:46:55.296Z,26.60
2018-07-03T10:47:55.254Z,25.52
2018-07-03T10:48:55.328Z,25.72
2018-07-03T10:49:55.269Z,27.67
2018-07-03T10:51:06.291Z,27.67
2018-07-03T10:51:55.915Z,27.66
2018-07-03T10:52:55.974Z,27.08
2018-07-03T10:53:55.140Z,27.08
2018-07-03T10:54:55.185Z,26.78
2018-07-03T10:55:55.079Z,27.45
2018-07-03T10:56:55.051Z,27.55
2018-07-03T10:57:55.011Z,27.36
2018-07-03T10:58:54.988Z,27.64
2018-07-03T10:59:54.973Z,27.03
2018-07-03T11:00:54.934Z,29.18
2018-07-03T11:01:54.915Z,26.93
2018-07-03T11:02:54.954Z,27.83
2018-07-03T11:03:54.857Z,27.73
2018-07-03T11:04:54.860Z,27.44
2018-07-03T11:05:54.829Z,27.34
2018-07-03T11:06:54.825Z,26.95
2018-07-03T11:07:54.775Z,27.73
2018-07-03T11:08:54.732Z,27.93
2018-07-03T11:09:54.721Z,26.95
2018-07-03T11:10:54.688Z,27.03
2018-07-03T11:11:54.655Z,27.33
2018-07-03T11:12:54.639Z,27.42
2018-07-03T11:13:54.740Z,28.13
2018-07-03T11:14:54.606Z,27.33
2018-07-03T11:15:54.604Z,27.73
2018-07-03T11:16:54.565Z,26.66
2018-07-03T11:17:54.536Z,26.15
2018-07-03T11:18:54.483Z,26.93
2018-07-03T11:19:54.563Z,27.23
2018-07-03T11:20:54.441Z,27.72
2018-07-03T11:21:54.442Z,27.54
2018-07-03T11:22:54.380Z,28.04
2018-07-03T11:23:54.363Z,27.84
2018-07-03T11:24:54.375Z,27.55
2018-07-03T11:25:54.314Z,27.66
2018-07-03T11:26:54.323Z,26.59
2018-07-03T11:27:54.278Z,25.89
2018-07-03T11:28:54.279Z,27.26
2018-07-03T11:29:54.222Z,26.35
2018-07-03T11:30:54.205Z,27.72
2018-07-03T11:31:54.160Z,27.73
2018-07-03T11:32:54.143Z,27.03
2018-07-03T11:33:54.121Z,28.40
2018-07-03T11:34:54.101Z,27.03
2018-07-03T11:35:54.086Z,27.80
2018-07-03T11:36:54.054Z,28.69
2018-07-03T11:37:54.016Z,29.96
2018-07-03T11:38:53.977Z,28.99
2018-07-03T11:39:54.000Z,28.01
2018-07-03T11:40:53.993Z,28.97
2018-07-03T11:41:53.909Z,27.80
2018-07-03T11:42:53.898Z,28.09
2018-07-03T11:43:53.860Z,27.80
2018-07-03T11:44:53.877Z,28.39
2018-07-03T11:45:53.844Z,29.27
2018-07-03T11:46:53.839Z,29.75
2018-07-03T11:47:53.761Z,28.29
2018-07-03T11:48:53.750Z,29.17
2018-07-03T11:49:53.705Z,29.18
2018-07-03T11:50:53.696Z,28.69
2018-07-03T11:51:53.692Z,29.69
2018-07-03T11:52:53.635Z,29.31
2018-07-03T11:53:53.627Z,29.22
2018-07-03T11:54:53.569Z,28.25
2018-07-03T11:55:53.543Z,27.26
2018-07-03T11:56:53.530Z,27.86
2018-07-03T11:57:53.531Z,27.75
2018-07-03T11:58:53.518Z,28.04
2018-07-03T11:59:53.473Z,27.86
2018-07-03T12:00:53.442Z,26.59
2018-07-03T12:01:53.451Z,27.26
2018-07-03T12:02:53.363Z,26.88
2018-07-03T12:03:53.352Z,27.84
2018-07-03T12:04:53.328Z,28.44
2018-07-03T12:05:53.286Z,26.68
2018-07-03T12:06:53.283Z,27.16
2018-07-03T12:07:53.252Z,28.15
2018-07-03T12:08:53.205Z,26.98
2018-07-03T12:09:53.196Z,27.37
2018-07-03T12:10:53.174Z,26.88
2018-07-03T12:11:53.187Z,27.37
2018-07-03T12:12:53.160Z,27.47
2018-07-03T12:13:53.102Z,27.27
2018-07-03T12:14:53.071Z,27.17
2018-07-03T12:15:53.027Z,28.55
2018-07-03T12:16:53.034Z,29.14
2018-07-03T12:17:53.037Z,26.99
2018-07-03T12:18:52.958Z,26.79
2018-07-03T12:19:52.952Z,27.59
2018-07-03T12:20:52.922Z,27.49
2018-07-03T12:21:52.888Z,26.61
2018-07-03T12:22:52.876Z,27.40
2018-07-03T12:23:52.852Z,28.58
2018-07-03T12:24:52.837Z,27.70
2018-07-03T12:26:03.832Z,26.62
2018-07-03T12:26:53.265Z,27.11
2018-07-03T12:27:52.780Z,27.42
2018-07-03T12:28:52.833Z,25.16
2018-07-03T12:29:53.556Z,25.94
2018-07-03T12:30:53.280Z,24.95
2018-07-03T12:31:52.623Z,25.22
2018-07-03T12:32:52.617Z,27.56
2018-07-03T12:33:52.622Z,26.88
2018-07-03T12:34:52.551Z,27.27
2018-07-03T12:35:52.524Z,26.38
2018-07-03T12:36:52.502Z,26.97
2018-07-03T12:37:52.472Z,28.04
2018-07-03T12:38:52.520Z,27.16
2018-07-03T12:39:52.457Z,29.52
2018-07-03T12:40:52.420Z,27.93
2018-07-03T12:41:52.404Z,27.15
2018-07-03T12:42:52.353Z,27.03
2018-07-03T12:43:52.322Z,27.31
2018-07-03T12:44:52.336Z,27.31
2018-07-03T12:45:52.277Z,27.80
2018-07-03T12:46:52.258Z,28.49
2018-07-03T12:47:52.227Z,28.29
2018-07-03T12:48:52.220Z,27.70
2018-07-03T12:49:52.239Z,28.19
2018-07-03T12:50:52.177Z,29.47
2018-07-03T12:51:52.124Z,29.18